Time;durP1;ratioP1;P1;durP2;ratioP2;P2;SDS_P1;SDS_P2;PMS_P1;PMS_P2;Temp;Humidity;BMP_temperature;BMP_pressure;BME280_temperature;BME280_humidity;BME280_pressure;Samples;Min_cycle;Max_cycle;Signal;HPM_P1;HPM_P2
2023/08/23 00:02:22;;;;;;;1.92;0.95;;;24.10;86.30;;;;;;5030308;28;20022;-66
2023/08/23 00:04:50;;;;;;;2.83;1.10;;;24.10;86.40;;;;;;5028933;28;20018;-66
2023/08/23 00:07:15;;;;;;;2.50;1.00;;;24.10;86.50;;;;;;5030099;28;20075;-65
2023/08/23 00:09:41;;;;;;;4.68;1.20;;;24.10;86.40;;;;;;5030373;28;20025;-68
2023/08/23 00:12:07;;;;;;;4.97;1.30;;;24.10;86.70;;;;;;5030717;28;20483;-65
2023/08/23 00:14:32;;;;;;;6.40;1.70;;;24.10;87.10;;;;;;5029751;28;20033;-68
2023/08/23 00:16:58;;;;;;;4.63;1.58;;;24.10;87.00;;;;;;5030288;28;20631;-68
2023/08/23 00:19:23;;;;;;;5.32;0.95;;;24.10;87.20;;;;;;5029968;28;20480;-68
2023/08/23 00:21:49;;;;;;;2.38;0.88;;;24.10;87.00;;;;;;5029957;28;20029;-68
2023/08/23 00:24:14;;;;;;;3.78;1.38;;;24.10;86.90;;;;;;5029764;28;20538;-68
2023/08/23 00:26:40;;;;;;;4.85;1.75;;;24.10;86.90;;;;;;5030180;28;20064;-68
2023/08/23 00:29:06;;;;;;;2.90;1.23;;;24.10;86.90;;;;;;5029847;28;20030;-68
2023/08/23 00:31:31;;;;;;;5.38;1.02;;;24.10;86.90;;;;;;5029838;28;20025;-65
2023/08/23 00:33:57;;;;;;;2.35;1.02;;;24.10;87.10;;;;;;5029762;28;20041;-68
2023/08/23 00:36:22;;;;;;;4.70;1.27;;;24.10;87.10;;;;;;5029694;28;20024;-68
2023/08/23 00:38:48;;;;;;;4.80;1.23;;;24.10;87.20;;;;;;5028337;28;20024;-68
2023/08/23 00:41:13;;;;;;;4.47;1.00;;;24.10;87.00;;;;;;5029246;28;20021;-68
2023/08/23 00:43:39;;;;;;;3.65;0.90;;;24.10;86.80;;;;;;5029933;28;20030;-68
2023/08/23 00:46:05;;;;;;;3.70;1.27;;;24.10;86.70;;;;;;5029564;28;20030;-65
2023/08/23 00:48:31;;;;;;;4.18;1.17;;;24.00;86.90;;;;;;5028893;28;20029;-65
2023/08/23 00:50:57;;;;;;;2.65;1.10;;;24.00;87.10;;;;;;5029545;28;20026;-68
2023/08/23 00:53:22;;;;;;;2.13;0.80;;;24.00;86.80;;;;;;5029295;28;20430;-65
2023/08/23 00:55:48;;;;;;;2.65;1.02;;;24.00;86.90;;;;;;5029574;28;20435;-67
2023/08/23 00:58:14;;;;;;;5.18;1.55;;;24.00;86.90;;;;;;5029422;28;20045;-65
2023/08/23 01:00:41;;;;;;;4.70;1.25;;;24.00;86.90;;;;;;5029204;28;20033;-67
2023/08/23 01:03:07;;;;;;;3.85;1.42;;;24.00;87.10;;;;;;5029150;28;20132;-68
2023/08/23 01:05:51;;;;;;;4.10;1.40;;;24.00;87.10;;;;;;5028354;28;20120;-68
2023/08/23 01:08:34;;;;;;;2.88;1.02;;;23.90;87.20;;;;;;5029104;28;20133;-67
2023/08/23 01:11:13;;;;;;;5.10;1.00;;;23.90;87.40;;;;;;5029564;28;20030;-68
2023/08/23 01:14:02;;;;;;;2.67;0.98;;;23.90;87.20;;;;;;5029016;28;20091;-67
2023/08/23 01:16:30;;;;;;;4.25;1.10;;;23.90;87.30;;;;;;5029134;28;20029;-65
2023/08/23 01:18:58;;;;;;;3.47;1.13;;;23.90;87.20;;;;;;5029312;28;20017;-65
2023/08/23 01:21:32;;;;;;;5.05;1.67;;;23.90;87.40;;;;;;5028545;28;20091;-68
2023/08/23 01:23:58;;;;;;;5.40;1.10;;;23.90;86.90;;;;;;5029327;28;20017;-68
2023/08/23 01:26:23;;;;;;;5.18;1.30;;;23.90;87.20;;;;;;5029129;28;20533;-66
2023/08/23 01:28:51;;;;;;;3.67;0.93;;;23.90;87.50;;;;;;5028643;28;20047;-66
2023/08/23 01:31:20;;;;;;;3.13;1.08;;;23.90;88.10;;;;;;5027677;28;20184;-66
2023/08/23 01:34:04;;;;;;;3.00;0.95;;;23.90;87.40;;;;;;5027306;28;20065;-66
2023/08/23 01:36:31;;;;;;;4.80;1.20;;;23.90;87.20;;;;;;5028562;28;20060;-66
2023/08/23 01:38:58;;;;;;;3.00;0.80;;;23.90;87.40;;;;;;5028752;28;20022;-66
2023/08/23 01:41:23;;;;;;;5.75;1.00;;;23.90;87.10;;;;;;5028668;28;20087;-66
2023/08/23 01:43:51;;;;;;;3.20;0.90;;;23.90;87.30;;;;;;5028821;28;20037;-65
2023/08/23 01:46:16;;;;;;;2.47;1.05;;;23.80;87.20;;;;;;5027511;28;20043;-66
2023/08/23 01:48:42;;;;;;;3.90;1.30;;;23.80;87.10;;;;;;5028412;28;20116;-66
2023/08/23 01:51:08;;;;;;;4.32;1.25;;;23.80;87.20;;;;;;5027200;28;20049;-66
2023/08/23 01:53:33;;;;;;;2.50;0.93;;;23.80;87.20;;;;;;5028531;28;20080;-66
2023/08/23 01:56:00;;;;;;;2.58;1.02;;;23.80;87.50;;;;;;5028328;28;20406;-66
2023/08/23 01:58:25;;;;;;;2.80;0.90;;;23.80;87.20;;;;;;5028939;28;20025;-66
2023/08/23 02:00:52;;;;;;;3.22;1.30;;;23.80;87.70;;;;;;5028690;28;20467;-66
2023/08/23 02:03:18;;;;;;;6.35;1.25;;;23.80;87.50;;;;;;5028559;28;20025;-66
2023/08/23 02:05:44;;;;;;;6.30;1.70;;;23.80;87.40;;;;;;5028184;28;20468;-66
2023/08/23 02:08:10;;;;;;;5.75;1.33;;;23.80;87.40;;;;;;5028287;28;20029;-66
2023/08/23 02:10:35;;;;;;;3.67;1.10;;;23.70;87.10;;;;;;5029544;28;20384;-66
2023/08/23 02:13:04;;;;;;;4.35;1.10;;;23.70;87.40;;;;;;5032860;28;20029;-66
2023/08/23 02:15:30;;;;;;;4.82;1.17;;;23.70;87.50;;;;;;5032371;28;20037;-66
2023/08/23 02:17:55;;;;;;;3.97;1.42;;;23.70;87.40;;;;;;5031834;28;20025;-66
2023/08/23 02:20:21;;;;;;;2.30;0.95;;;23.70;87.60;;;;;;5032355;28;20499;-66
2023/08/23 02:22:47;;;;;;;3.75;1.00;;;23.70;87.30;;;;;;5032406;28;20029;-66
2023/08/23 02:25:12;;;;;;;2.88;1.00;;;23.70;87.10;;;;;;5032488;28;20034;-66
2023/08/23 02:27:38;;;;;;;3.65;1.10;;;23.70;87.40;;;;;;5031822;28;20053;-66
2023/08/23 02:30:04;;;;;;;5.13;1.30;;;23.70;87.10;;;;;;5032022;28;20036;-66
2023/08/23 02:32:29;;;;;;;3.72;1.25;;;23.70;87.30;;;;;;5032225;28;20025;-66
2023/08/23 02:34:55;;;;;;;3.70;1.20;;;23.70;87.60;;;;;;5031682;28;20044;-66
2023/08/23 02:37:21;;;;;;;9.10;1.38;;;23.60;87.30;;;;;;5031838;28;20152;-66
2023/08/23 02:39:46;;;;;;;6.45;1.42;;;23.70;87.50;;;;;;5031903;28;20087;-66
2023/08/23 02:42:12;;;;;;;11.05;1.30;;;23.60;87.10;;;;;;5031291;28;20518;-66
2023/08/23 02:44:37;;;;;;;8.80;1.30;;;23.60;87.00;;;;;;5031820;28;20494;-66
2023/08/23 02:47:03;;;;;;;8.27;1.40;;;23.60;87.40;;;;;;5031556;28;20037;-67
2023/08/23 02:49:28;;;;;;;8.32;1.30;;;23.60;87.20;;;;;;5031671;28;20112;-67
2023/08/23 02:51:54;;;;;;;3.40;1.25;;;23.60;86.90;;;;;;5031931;28;20546;-67
2023/08/23 02:54:20;;;;;;;6.53;1.20;;;23.60;87.30;;;;;;5031527;28;20657;-67
2023/08/23 02:56:45;;;;;;;8.48;1.35;;;23.60;87.50;;;;;;5031125;28;21076;-67
2023/08/23 02:59:11;;;;;;;8.15;1.00;;;23.60;87.30;;;;;;5031653;28;20124;-66
2023/08/23 03:01:36;;;;;;;4.03;1.17;;;23.60;87.30;;;;;;5031184;28;20045;-66
2023/08/23 03:04:02;;;;;;;7.05;1.10;;;23.60;87.10;;;;;;5031372;28;20506;-67
2023/08/23 03:06:28;;;;;;;6.80;1.42;;;23.60;87.20;;;;;;5031328;28;20104;-67
2023/08/23 03:08:53;;;;;;;4.22;1.00;;;23.60;86.90;;;;;;5031975;28;20463;-67
2023/08/23 03:11:19;;;;;;;3.47;0.90;;;23.60;87.00;;;;;;5031472;28;20026;-67
2023/08/23 03:13:44;;;;;;;4.57;1.20;;;23.60;87.10;;;;;;5030532;28;20037;-66
2023/08/23 03:16:10;;;;;;;4.13;1.38;;;23.60;87.10;;;;;;5030381;28;20107;-66
2023/08/23 03:18:36;;;;;;;5.32;1.50;;;23.60;87.50;;;;;;5031123;28;20033;-66
2023/08/23 03:21:01;;;;;;;4.70;1.00;;;23.60;87.70;;;;;;5031095;28;20103;-66
2023/08/23 03:23:27;;;;;;;8.30;1.50;;;23.60;87.40;;;;;;5030846;28;20031;-67
2023/08/23 03:25:52;;;;;;;4.43;0.75;;;23.60;87.60;;;;;;5031054;28;20041;-68
2023/08/23 03:28:18;;;;;;;6.68;1.10;;;23.60;87.90;;;;;;5031330;28;20071;-68
2023/08/23 03:30:43;;;;;;;5.82;0.95;;;23.60;87.60;;;;;;5030843;28;20037;-67
2023/08/23 03:33:09;;;;;;;6.70;1.20;;;23.60;87.80;;;;;;5031282;28;20483;-67
2023/08/23 03:35:35;;;;;;;6.18;1.23;;;23.60;87.40;;;;;;5030501;28;20117;-66
2023/08/23 03:38:00;;;;;;;3.03;0.90;;;23.60;87.60;;;;;;5031151;28;20032;-66
2023/08/23 03:40:26;;;;;;;5.72;1.00;;;23.60;87.80;;;;;;5030996;28;20044;-66
2023/08/23 03:42:52;;;;;;;8.75;1.02;;;23.50;87.70;;;;;;5030802;28;20029;-67
2023/08/23 03:45:18;;;;;;;7.72;1.50;;;23.50;87.80;;;;;;5030660;28;20033;-66
2023/08/23 03:47:44;;;;;;;7.55;1.75;;;23.50;87.60;;;;;;5030562;28;20178;-66
2023/08/23 03:50:11;;;;;;;4.72;0.95;;;23.60;87.60;;;;;;5031128;28;20035;-68
2023/08/23 03:52:37;;;;;;;5.85;1.27;;;23.60;87.70;;;;;;5029392;28;20372;-66
2023/08/23 03:55:03;;;;;;;8.27;1.10;;;23.50;87.50;;;;;;5030286;28;20057;-67
2023/08/23 03:57:29;;;;;;;3.67;1.20;;;23.50;87.60;;;;;;5030787;28;20556;-66
2023/08/23 03:59:54;;;;;;;4.22;1.02;;;23.50;87.70;;;;;;5030483;28;20026;-66
2023/08/23 04:02:20;;;;;;;5.72;1.13;;;23.50;88.10;;;;;;5029985;28;20127;-66
2023/08/23 04:04:46;;;;;;;5.78;1.20;;;23.50;87.40;;;;;;5030287;28;20063;-67
2023/08/23 04:07:14;;;;;;;2.85;1.13;;;23.50;88.00;;;;;;5030311;28;20042;-67
2023/08/23 04:09:39;;;;;;;8.75;1.80;;;23.50;88.00;;;;;;5030510;28;20063;-67
2023/08/23 04:12:05;;;;;;;7.55;1.17;;;23.50;88.10;;;;;;5029303;28;20602;-66
2023/08/23 04:14:31;;;;;;;6.88;1.40;;;23.50;88.20;;;;;;5029991;28;20584;-67
2023/08/23 04:16:56;;;;;;;6.65;1.55;;;23.40;88.00;;;;;;5030301;28;20022;-67
2023/08/23 04:19:22;;;;;;;6.80;1.60;;;23.40;87.90;;;;;;5029583;28;20034;-67
2023/08/23 04:21:48;;;;;;;5.38;1.35;;;23.40;88.30;;;;;;5030237;28;20032;-67
2023/08/23 04:24:15;;;;;;;2.92;1.15;;;23.40;88.10;;;;;;5028929;28;20479;-67
2023/08/23 04:26:40;;;;;;;6.50;2.00;;;23.50;87.80;;;;;;5029727;28;20034;-67
2023/08/23 04:29:06;;;;;;;10.57;1.45;;;23.50;88.20;;;;;;5030363;28;20032;-68
2023/08/23 04:31:31;;;;;;;5.03;1.13;;;23.40;87.90;;;;;;5029909;28;20029;-67
2023/08/23 04:33:57;;;;;;;3.28;1.05;;;23.40;88.00;;;;;;5029573;28;20084;-67
2023/08/23 04:36:22;;;;;;;5.68;1.20;;;23.40;87.90;;;;;;5030012;28;20064;-67
2023/08/23 04:38:48;;;;;;;6.40;1.20;;;23.40;88.10;;;;;;5029751;28;20056;-67
2023/08/23 04:41:14;;;;;;;8.65;1.90;;;23.40;88.10;;;;;;5029606;28;20045;-66
2023/08/23 04:43:39;;;;;;;9.35;1.38;;;23.40;87.90;;;;;;5029703;28;20506;-65
2023/08/23 04:46:06;;;;;;;7.18;2.25;;;23.30;88.00;;;;;;5029754;28;20032;-67
2023/08/23 04:48:32;;;;;;;3.78;0.90;;;23.40;88.00;;;;;;5029404;28;20064;-67
2023/08/23 04:50:58;;;;;;;4.13;1.13;;;23.30;88.20;;;;;;5029309;28;20135;-67
2023/08/23 04:53:24;;;;;;;9.40;1.40;;;23.40;88.20;;;;;;5029612;28;20049;-68
2023/08/23 04:55:50;;;;;;;6.72;1.10;;;23.30;88.40;;;;;;5028172;28;20491;-67
2023/08/23 04:58:16;;;;;;;3.25;1.17;;;23.40;88.70;;;;;;5029328;28;20037;-67
2023/08/23 05:00:44;;;;;;;8.25;1.20;;;23.40;89.00;;;;;;5028994;28;20068;-67
2023/08/23 05:03:09;;;;;;;3.25;1.10;;;23.40;88.90;;;;;;5027695;28;20435;-67
2023/08/23 05:05:35;;;;;;;3.00;1.27;;;23.30;88.70;;;;;;5029284;28;20029;-68
2023/08/23 05:08:01;;;;;;;6.15;1.80;;;23.30;88.90;;;;;;5029306;28;20068;-67
2023/08/23 05:10:27;;;;;;;6.68;1.45;;;23.30;88.90;;;;;;5029299;28;20041;-67
2023/08/23 05:12:55;;;;;;;5.25;1.45;;;23.40;89.10;;;;;;5028891;28;20021;-65
2023/08/23 05:15:21;;;;;;;6.53;1.42;;;23.40;88.90;;;;;;5028619;28;20444;-65
2023/08/23 05:17:47;;;;;;;4.75;1.10;;;23.30;88.90;;;;;;5029216;28;20116;-65
2023/08/23 05:20:14;;;;;;;6.75;1.67;;;23.40;89.00;;;;;;5029069;28;20071;-66
2023/08/23 05:22:40;;;;;;;7.40;1.30;;;23.40;88.90;;;;;;5029018;28;20021;-66
2023/08/23 05:25:06;;;;;;;8.27;1.80;;;23.40;89.00;;;;;;5028303;28;20068;-66
2023/08/23 05:27:31;;;;;;;6.82;1.42;;;23.30;88.80;;;;;;5029035;28;20408;-66
2023/08/23 05:29:59;;;;;;;5.95;1.38;;;23.30;88.70;;;;;;5028680;28;20032;-66
2023/08/23 05:32:25;;;;;;;5.47;1.60;;;23.30;88.90;;;;;;5029064;28;20025;-66
2023/08/23 05:34:50;;;;;;;8.85;1.83;;;23.30;89.00;;;;;;5028854;28;20515;-66
2023/08/23 05:37:16;;;;;;;4.63;1.50;;;23.40;88.90;;;;;;5028816;28;20025;-66
2023/08/23 05:39:42;;;;;;;6.05;1.65;;;23.30;88.90;;;;;;5028998;28;20059;-66
2023/08/23 05:42:07;;;;;;;6.97;1.45;;;23.40;88.90;;;;;;5028615;28;20053;-66
2023/08/23 05:44:33;;;;;;;4.88;1.17;;;23.40;89.00;;;;;;5028761;28;20026;-66
2023/08/23 05:46:59;;;;;;;10.23;1.83;;;23.40;89.20;;;;;;5031316;28;20051;-66
2023/08/23 05:49:24;;;;;;;7.85;2.85;;;23.40;89.00;;;;;;5032646;28;20096;-65
2023/08/23 05:51:50;;;;;;;9.95;3.35;;;23.10;88.90;;;;;;5031627;28;20029;-65
2023/08/23 05:54:16;;;;;;;8.82;4.22;;;22.70;90.40;;;;;;5032354;28;20160;-65
2023/08/23 05:56:41;;;;;;;9.27;6.75;;;22.60;90.70;;;;;;5032679;28;20038;-63
2023/08/23 05:59:07;;;;;;;11.98;7.40;;;22.40;90.50;;;;;;5032764;28;20053;-63
2023/08/23 06:01:32;;;;;;;12.80;8.07;;;22.30;90.50;;;;;;5032392;28;20029;-63
2023/08/23 06:03:58;;;;;;;14.60;7.78;;;22.10;91.00;;;;;;5032705;28;20103;-63
2023/08/23 06:06:24;;;;;;;10.60;7.68;;;22.00;91.20;;;;;;5032732;28;20119;-65
2023/08/23 06:08:49;;;;;;;13.30;8.02;;;21.80;91.50;;;;;;5032852;28;20078;-64
2023/08/23 06:11:15;;;;;;;11.82;8.25;;;21.40;92.40;;;;;;5031509;28;20475;-65
2023/08/23 06:13:42;;;;;;;13.40;9.52;;;21.30;92.60;;;;;;5032992;28;20021;-65
2023/08/23 06:16:09;;;;;;;12.15;9.68;;;21.30;92.50;;;;;;5032643;28;20021;-65
2023/08/23 06:18:34;;;;;;;13.45;8.45;;;21.30;92.80;;;;;;5029941;28;20059;-65
2023/08/23 06:21:00;;;;;;;11.40;8.52;;;21.20;93.40;;;;;;5029529;28;20029;-64
2023/08/23 06:23:25;;;;;;;14.10;9.65;;;21.00;93.40;;;;;;5030361;28;20036;-64
2023/08/23 06:25:58;;;;;;;17.27;10.45;;;20.90;93.80;;;;;;5030472;28;20422;-65
2023/08/23 06:28:23;;;;;;;13.30;9.65;;;20.70;94.20;;;;;;5030551;28;20018;-64
2023/08/23 06:30:49;;;;;;;10.35;4.68;;;20.70;94.30;;;;;;5030744;28;20020;-64
2023/08/23 06:33:15;;;;;;;11.68;5.85;;;21.00;94.00;;;;;;5030260;28;20522;-64
2023/08/23 06:35:40;;;;;;;14.13;8.35;;;21.30;93.80;;;;;;5030365;28;20033;-64
2023/08/23 06:38:06;;;;;;;13.13;6.85;;;21.40;93.50;;;;;;5029893;28;20029;-66
2023/08/23 06:40:31;;;;;;;13.95;8.95;;;21.30;94.00;;;;;;5030377;28;20029;-65
2023/08/23 06:42:57;;;;;;;14.27;8.45;;;21.40;93.50;;;;;;5029600;28;20801;-65
2023/08/23 06:45:22;;;;;;;14.23;7.82;;;21.30;93.60;;;;;;5030283;28;20387;-65
2023/08/23 06:47:49;;;;;;;11.68;7.80;;;21.30;93.50;;;;;;5030549;28;20040;-65
2023/08/23 06:50:15;;;;;;;12.07;7.35;;;21.50;93.20;;;;;;5031081;28;20026;-65
2023/08/23 06:52:40;;;;;;;10.85;8.38;;;21.60;92.90;;;;;;5031943;28;20032;-65
2023/08/23 06:55:06;;;;;;;13.05;7.90;;;21.70;92.70;;;;;;5031296;28;20910;-65
2023/08/23 06:57:32;;;;;;;12.20;7.28;;;21.60;92.90;;;;;;5030978;28;20037;-65
2023/08/23 06:59:58;;;;;;;10.85;7.22;;;21.50;93.00;;;;;;5031997;28;20090;-65
2023/08/23 07:02:25;;;;;;;13.85;6.68;;;21.70;93.00;;;;;;5032027;28;20089;-64
2023/08/23 07:04:51;;;;;;;11.32;7.30;;;21.80;93.00;;;;;;5031471;28;20172;-65
2023/08/23 07:07:19;;;;;;;11.30;7.15;;;21.80;92.80;;;;;;5031615;28;20026;-64
2023/08/23 07:09:45;;;;;;;9.80;7.05;;;21.80;92.90;;;;;;5031528;28;20052;-65
2023/08/23 07:12:10;;;;;;;9.63;7.47;;;21.80;92.80;;;;;;5031529;28;20164;-65
2023/08/23 07:14:36;;;;;;;15.20;8.48;;;21.80;92.30;;;;;;5031588;28;20088;-64
2023/08/23 07:17:02;;;;;;;12.13;7.22;;;21.60;92.90;;;;;;5030253;28;20030;-65
2023/08/23 07:19:27;;;;;;;13.90;6.32;;;21.60;92.80;;;;;;5031643;28;20104;-65
2023/08/23 07:21:53;;;;;;;9.75;5.78;;;21.80;92.70;;;;;;5030657;28;20097;-64
2023/08/23 07:24:19;;;;;;;12.10;6.20;;;21.90;92.50;;;;;;5030153;28;20021;-64
2023/08/23 07:26:44;;;;;;;11.90;7.22;;;22.00;92.10;;;;;;5030129;28;20072;-65
2023/08/23 07:29:15;;;;;;;9.85;7.10;;;22.00;92.20;;;;;;5031341;28;20071;-64
2023/08/23 07:31:41;;;;;;;11.13;6.80;;;22.00;92.00;;;;;;5031174;28;20053;-64
2023/08/23 07:34:07;;;;;;;9.32;5.78;;;22.00;92.20;;;;;;5029316;28;20061;-64
2023/08/23 07:36:32;;;;;;;12.23;6.95;;;22.00;91.90;;;;;;5029469;28;20034;-64
2023/08/23 07:38:58;;;;;;;9.57;5.70;;;22.00;91.90;;;;;;5029288;28;20590;-65
2023/08/23 07:41:24;;;;;;;8.25;6.05;;;22.10;91.70;;;;;;5028881;28;20013;-65
2023/08/23 07:43:49;;;;;;;9.07;7.07;;;22.00;91.80;;;;;;5028190;28;20115;-65
2023/08/23 07:46:15;;;;;;;10.80;6.32;;;22.00;91.90;;;;;;5027911;28;20378;-64
2023/08/23 07:48:41;;;;;;;11.15;6.78;;;22.10;91.70;;;;;;5028304;28;20472;-64
2023/08/23 07:51:07;;;;;;;12.18;6.93;;;22.10;91.60;;;;;;5028415;28;20147;-64
2023/08/23 07:53:33;;;;;;;10.13;6.28;;;22.20;91.80;;;;;;5028914;28;20107;-63
2023/08/23 07:55:59;;;;;;;11.40;7.28;;;22.30;91.60;;;;;;5029025;28;20033;-64
2023/08/23 07:58:24;;;;;;;10.20;6.45;;;22.30;91.70;;;;;;5029770;28;20032;-64
2023/08/23 08:00:51;;;;;;;11.90;6.38;;;22.40;91.20;;;;;;5030477;28;20035;-64
2023/08/23 08:03:17;;;;;;;12.13;7.15;;;22.40;91.00;;;;;;5030801;28;20100;-65
2023/08/23 08:05:42;;;;;;;14.95;7.50;;;22.50;90.70;;;;;;5029425;28;20108;-64
2023/08/23 08:08:08;;;;;;;12.43;7.65;;;22.60;91.10;;;;;;5030182;28;20072;-63
2023/08/23 08:10:33;;;;;;;14.40;7.35;;;22.60;90.80;;;;;;5030141;28;20022;-64
2023/08/23 08:12:59;;;;;;;11.23;7.50;;;22.60;90.80;;;;;;5030815;28;20026;-64
2023/08/23 08:15:25;;;;;;;11.80;7.10;;;22.70;90.70;;;;;;5030592;28;20041;-64
2023/08/23 08:17:52;;;;;;;13.13;7.03;;;22.70;90.80;;;;;;5031107;28;20083;-64
2023/08/23 08:20:19;;;;;;;13.35;7.70;;;22.80;90.60;;;;;;5030235;28;20573;-65
2023/08/23 08:22:45;;;;;;;12.63;7.00;;;22.90;90.40;;;;;;5030338;28;20505;-65
2023/08/23 08:25:11;;;;;;;16.08;7.60;;;22.90;90.40;;;;;;5030565;28;20029;-66
2023/08/23 08:27:37;;;;;;;11.05;6.53;;;22.90;90.30;;;;;;5028677;28;20056;-65
2023/08/23 08:30:03;;;;;;;9.98;5.85;;;23.00;90.20;;;;;;5030218;28;20053;-65
2023/08/23 08:32:29;;;;;;;12.30;6.97;;;23.10;90.20;;;;;;5030314;28;20064;-65
2023/08/23 08:34:57;;;;;;;10.10;5.25;;;23.20;89.70;;;;;;5029558;28;20072;-64
2023/08/23 08:37:25;;;;;;;12.15;6.40;;;23.30;89.70;;;;;;5030013;28;20025;-65
2023/08/23 08:39:50;;;;;;;9.13;5.80;;;23.30;89.40;;;;;;5030070;28;20021;-66
2023/08/23 08:42:16;;;;;;;8.13;4.22;;;23.40;89.30;;;;;;5029864;28;20804;-65
2023/08/23 08:44:45;;;;;;;11.30;4.70;;;23.40;89.00;;;;;;5029847;28;20041;-66
2023/08/23 08:47:11;;;;;;;9.93;4.97;;;23.50;88.60;;;;;;5029952;28;20442;-66
2023/08/23 08:49:37;;;;;;;8.90;5.18;;;23.60;87.70;;;;;;5029693;28;20022;-65
2023/08/23 08:52:04;;;;;;;9.95;5.70;;;23.60;87.20;;;;;;5029648;28;20037;-65
2023/08/23 08:54:34;;;;;;;9.43;4.75;;;23.70;87.50;;;;;;5029697;28;20385;-66
2023/08/23 08:57:00;;;;;;;7.47;4.50;;;23.70;87.40;;;;;;5029910;28;20384;-65
2023/08/23 08:59:27;;;;;;;8.60;5.65;;;23.80;87.20;;;;;;5028748;28;20137;-64
2023/08/23 09:01:56;;;;;;;9.20;4.18;;;23.80;86.90;;;;;;5029335;28;20112;-64
2023/08/23 09:04:22;;;;;;;12.73;4.35;;;23.80;87.60;;;;;;5029588;28;20035;-64
2023/08/23 09:06:48;;;;;;;11.27;4.75;;;23.90;87.20;;;;;;5028171;28;20022;-65
2023/08/23 09:09:14;;;;;;;10.25;5.20;;;23.90;87.20;;;;;;5028904;28;20049;-64
2023/08/23 09:11:40;;;;;;;7.22;4.32;;;23.90;86.00;;;;;;5029364;28;20513;-64
2023/08/23 09:14:19;;;;;;;7.63;4.10;;;24.00;85.60;;;;;;5028981;28;20033;-65
2023/08/23 09:16:47;;;;;;;8.02;3.90;;;24.10;86.10;;;;;;5029238;28;20033;-65
2023/08/23 09:19:12;;;;;;;8.10;3.60;;;24.10;85.70;;;;;;5028615;28;20025;-64
2023/08/23 09:21:46;;;;;;;6.35;3.35;;;24.20;85.40;;;;;;5029384;28;20026;-64
2023/08/23 09:24:12;;;;;;;6.43;2.67;;;24.30;85.20;;;;;;5027896;28;20036;-64
2023/08/23 09:26:38;;;;;;;5.65;2.20;;;24.30;85.20;;;;;;5029569;28;20025;-64
2023/08/23 09:29:05;;;;;;;4.95;1.92;;;24.40;84.90;;;;;;5029153;28;20021;-64
2023/08/23 09:31:31;;;;;;;5.00;1.63;;;24.40;84.90;;;;;;5028948;28;20041;-64
2023/08/23 09:33:57;;;;;;;4.35;1.80;;;24.50;85.00;;;;;;5028887;28;20115;-64
2023/08/23 09:36:30;;;;;;;6.53;1.90;;;24.60;84.50;;;;;;5028110;28;20025;-64
2023/08/23 09:38:59;;;;;;;4.15;1.60;;;24.60;84.20;;;;;;5029373;28;20022;-64
2023/08/23 09:41:25;;;;;;;4.90;2.17;;;24.70;84.10;;;;;;5028337;28;20031;-64
2023/08/23 09:43:53;;;;;;;5.05;2.28;;;24.70;83.40;;;;;;5029737;28;20104;-64
2023/08/23 09:46:25;;;;;;;5.07;1.52;;;24.80;83.40;;;;;;5027718;28;20054;-64
2023/08/23 09:48:55;;;;;;;3.63;1.45;;;24.90;83.20;;;;;;5029039;28;20029;-64
2023/08/23 09:51:24;;;;;;;4.85;1.95;;;24.90;82.90;;;;;;5028798;28;20208;-64
2023/08/23 09:53:58;;;;;;;8.32;2.55;;;25.00;83.40;;;;;;5028912;28;20590;-64
2023/08/23 09:56:24;;;;;;;3.60;1.52;;;25.10;81.80;;;;;;5027625;28;20490;-64
2023/08/23 09:58:50;;;;;;;3.92;1.58;;;25.10;82.40;;;;;;5028925;28;20040;-64
2023/08/23 10:01:16;;;;;;;4.43;2.08;;;25.10;82.00;;;;;;5028464;28;20478;-64
2023/08/23 10:03:42;;;;;;;3.30;1.27;;;25.20;81.30;;;;;;5029547;28;20029;-64
2023/08/23 10:06:08;;;;;;;5.45;1.88;;;25.10;81.70;;;;;;5029327;28;20121;-64
2023/08/23 10:08:35;;;;;;;3.03;1.20;;;25.10;81.60;;;;;;5028452;28;20100;-64
2023/08/23 10:11:01;;;;;;;4.25;1.80;;;25.20;81.60;;;;;;5028974;28;20364;-65
2023/08/23 10:13:30;;;;;;;4.65;1.60;;;25.30;80.90;;;;;;5029032;28;20032;-65
2023/08/23 10:15:56;;;;;;;3.80;1.40;;;25.30;81.40;;;;;;5027996;28;20040;-64
2023/08/23 10:18:23;;;;;;;4.00;1.70;;;25.30;81.20;;;;;;5028587;28;20414;-64
2023/08/23 10:20:51;;;;;;;3.55;1.98;;;25.40;80.80;;;;;;5028540;28;20529;-64
2023/08/23 10:23:18;;;;;;;3.40;1.45;;;25.40;81.10;;;;;;5028233;28;20442;-65
2023/08/23 10:25:48;;;;;;;3.80;1.58;;;25.40;81.00;;;;;;5029002;28;20104;-65
2023/08/23 10:28:18;;;;;;;3.20;1.52;;;25.40;80.80;;;;;;5028887;28;20464;-65
2023/08/23 10:30:45;;;;;;;5.43;1.80;;;25.40;80.80;;;;;;5029071;28;20075;-65
2023/08/23 10:33:13;;;;;;;5.28;1.52;;;25.50;80.30;;;;;;5032059;28;20441;-66
2023/08/23 10:35:41;;;;;;;4.90;2.00;;;25.50;79.60;;;;;;5032383;28;20029;-65
2023/08/23 10:38:07;;;;;;;8.60;2.10;;;25.40;79.90;;;;;;5031912;28;20108;-66
2023/08/23 10:40:34;;;;;;;8.40;1.67;;;25.40;80.70;;;;;;5031917;28;20037;-65
2023/08/23 10:43:09;;;;;;;9.27;2.10;;;25.30;80.70;;;;;;5032227;28;20029;-65
2023/08/23 10:45:52;;;;;;;8.00;1.67;;;25.30;80.90;;;;;;5032046;28;20313;-65
2023/08/23 10:48:20;;;;;;;6.13;1.60;;;25.30;81.00;;;;;;5032263;28;20028;-65
2023/08/23 10:50:47;;;;;;;6.43;1.40;;;25.30;81.00;;;;;;5032248;28;20032;-65
2023/08/23 10:53:15;;;;;;;5.28;1.50;;;25.30;80.70;;;;;;5032045;28;20060;-65
2023/08/23 10:55:40;;;;;;;5.00;1.40;;;25.30;80.90;;;;;;5031739;28;20388;-65
2023/08/23 10:58:06;;;;;;;4.10;1.50;;;25.40;80.70;;;;;;5032091;28;20029;-65
2023/08/23 11:00:32;;;;;;;4.40;1.30;;;25.40;80.70;;;;;;5032045;28;20033;-65
2023/08/23 11:02:58;;;;;;;4.18;1.48;;;25.40;80.50;;;;;;5031678;28;20029;-66
2023/08/23 11:05:24;;;;;;;6.88;1.50;;;25.40;80.60;;;;;;5032049;28;20397;-65
2023/08/23 11:07:51;;;;;;;7.82;1.90;;;25.40;80.70;;;;;;5032534;28;20040;-65
2023/08/23 11:10:18;;;;;;;8.05;1.27;;;25.30;80.40;;;;;;5031309;28;20021;-65
2023/08/23 11:12:44;;;;;;;4.75;1.20;;;25.40;80.40;;;;;;5031990;28;20558;-65
2023/08/23 11:15:10;;;;;;;5.03;1.48;;;25.30;80.30;;;;;;5031549;28;20029;-65
2023/08/23 11:17:37;;;;;;;8.20;1.80;;;25.30;80.40;;;;;;5032313;28;20430;-59
2023/08/23 11:20:03;;;;;;;7.32;1.92;;;;;;;;;;5030575;28;20100;-60
2023/08/23 11:22:29;;;;;;;8.13;2.90;;;;;;;;;;5031391;28;20464;-60
2023/08/23 11:24:58;;;;;;;6.90;1.98;;;;;;;;;;5031231;28;20120;-60
2023/08/23 11:27:25;;;;;;;12.27;2.20;;;;;;;;;;5030908;28;20072;-61
2023/08/23 11:29:51;;;;;;;10.93;1.90;;;;;;;;;;5030830;28;20384;-61
2023/08/23 11:32:17;;;;;;;8.35;1.90;;;;;;;;;;5029951;28;20056;-61
2023/08/23 11:34:43;;;;;;;10.55;1.92;;;;;;;;;;5029670;28;20157;-61
2023/08/23 11:37:09;;;;;;;5.82;1.50;;;;;;;;;;5030152;28;20025;-61
2023/08/23 11:39:36;;;;;;;6.22;1.30;;;;;;;;;;5030128;28;20025;-63
2023/08/23 11:42:02;;;;;;;2.58;1.13;;;;;;;;;;5029197;28;20025;-60
2023/08/23 11:44:28;;;;;;;7.10;1.73;;;;;;;;;;5028633;28;20029;-63
2023/08/23 11:46:56;;;;;;;7.45;1.65;;;;;;;;;;5030830;28;20071;-60
2023/08/23 11:49:23;;;;;;;10.38;1.50;;;;;;;;;;5030789;28;20120;-63
2023/08/23 11:51:50;;;;;;;15.75;2.85;;;;;;;;;;5030561;28;20057;-60
2023/08/23 11:54:16;;;;;;;5.70;1.95;;;;;;;;;;5030471;28;20057;-60
2023/08/23 11:56:43;;;;;;;9.73;2.05;;;;;;;;;;5030938;28;20025;-60
2023/08/23 11:59:10;;;;;;;7.35;1.50;;;;;;;;;;5031028;28;20121;-62
2023/08/23 12:01:38;;;;;;;6.15;1.40;;;;;;;;;;5030459;28;20048;-62
2023/08/23 12:04:04;;;;;;;6.30;1.70;;;;;;;;;;5030365;28;20065;-62
2023/08/23 12:06:30;;;;;;;5.90;1.55;;;;;;;;;;5030948;28;20030;-62
2023/08/23 12:08:57;;;;;;;5.80;1.60;;;;;;;;;;5031153;28;20029;-60
2023/08/23 12:11:23;;;;;;;6.68;1.58;;;;;;;;;;5030597;28;20069;-63
2023/08/23 12:13:49;;;;;;;4.35;1.40;;;29.20;62.00;;;;;;5030372;28;20033;-63
2023/08/23 12:16:15;;;;;;;5.47;1.50;;;29.60;61.50;;;;;;5030305;28;20017;-61
2023/08/23 12:18:41;;;;;;;6.63;1.55;;;30.30;59.90;;;;;;5030730;28;20058;-61
2023/08/23 12:21:07;;;;;;;8.00;1.60;;;30.60;60.40;;;;;;5030015;28;20553;-60
2023/08/23 12:23:32;;;;;;;5.50;1.20;;;30.90;58.30;;;;;;5029766;28;20030;-59
2023/08/23 12:25:58;;;;;;;5.28;1.50;;;30.90;58.90;;;;;;5030305;28;20026;-61
2023/08/23 12:28:23;;;;;;;6.85;1.23;;;31.00;59.10;;;;;;5029945;28;20502;-59
2023/08/23 12:30:49;;;;;;;7.45;1.50;;;31.60;57.10;;;;;;5030030;28;20026;-59
2023/08/23 12:33:15;;;;;;;3.10;1.15;;;32.00;56.00;;;;;;5030057;28;20029;-59
2023/08/23 12:35:40;;;;;;;6.93;1.23;;;32.30;55.60;;;;;;5030053;28;20616;-59
2023/08/23 12:38:06;;;;;;;5.80;1.10;;;32.50;54.60;;;;;;5030007;28;20030;-59
2023/08/23 12:40:32;;;;;;;5.82;1.02;;;32.90;54.80;;;;;;5029768;28;20083;-60
2023/08/23 12:42:57;;;;;;;3.22;1.23;;;33.10;53.80;;;;;;5030569;28;20090;-59
2023/08/23 12:45:23;;;;;;;7.03;1.60;;;32.50;53.50;;;;;;5029943;28;20535;-60
2023/08/23 12:47:48;;;;;;;4.15;1.30;;;32.10;54.90;;;;;;5030106;28;20097;-59
2023/08/23 12:50:14;;;;;;;5.13;1.30;;;31.50;56.60;;;;;;5029505;28;20021;-59